Time;durP1;ratioP1;P1;durP2;ratioP2;P2;SDS_P1;SDS_P2;PMS_P1;PMS_P2;Temp;Humidity;BMP_temperature;BMP_pressure;BME280_temperature;BME280_humidity;BME280_pressure;Samples;Min_cycle;Max_cycle;Signal;HPM_P1;HPM_P2
2022/02/27 00:00:33;;;;;;;24.08;9.20;;;;;;;-2.36;90.75;100901.34;5029179;28;20360;-53
2022/02/27 00:02:59;;;;;;;22.60;7.85;;;;;;;-2.41;92.01;100902.53;5031253;28;20030;-54
2022/02/27 00:05:24;;;;;;;16.48;5.75;;;;;;;-2.18;91.28;100907.78;5029987;28;20048;-51
2022/02/27 00:07:50;;;;;;;21.25;5.35;;;;;;;-2.11;91.94;100898.47;5036415;28;20040;-53
2022/02/27 00:10:15;;;;;;;24.92;5.50;;;;;;;-2.01;93.61;100888.94;5041755;28;20042;-53
2022/02/27 00:12:41;;;;;;;18.50;6.18;;;;;;;-2.11;92.43;100897.66;5028289;28;20033;-52
2022/02/27 00:15:06;;;;;;;17.75;5.82;;;;;;;-2.06;91.73;100898.97;5034438;28;20495;-53
2022/02/27 00:17:35;;;;;;;16.85;4.10;;;;;;;-1.87;92.94;100890.47;5039591;28;20040;-55
2022/02/27 00:20:00;;;;;;;17.65;4.55;;;;;;;-2.00;90.55;100890.63;5038839;28;20041;-53
2022/02/27 00:22:26;;;;;;;26.52;6.85;;;;;;;-2.14;90.65;100897.91;5035615;28;20072;-53
2022/02/27 00:24:51;;;;;;;22.98;10.32;;;;;;;-2.24;91.33;100892.53;5035119;28;20045;-55
2022/02/27 00:27:16;;;;;;;25.17;8.00;;;;;;;-2.26;92.31;100889.19;5034827;28;20041;-54
2022/02/27 00:29:42;;;;;;;31.83;10.10;;;;;;;-2.20;92.56;100886.06;5029691;28;20037;-53
2022/02/27 00:32:07;;;;;;;50.00;16.58;;;;;;;-2.17;93.28;100873.53;5032545;28;20045;-53
2022/02/27 00:34:33;;;;;;;62.47;20.83;;;;;;;-2.30;92.27;100878.06;5032020;28;20502;-54
2022/02/27 00:36:58;;;;;;;46.78;19.65;;;;;;;-2.19;93.72;100879.88;5036064;28;20061;-54
2022/02/27 00:39:24;;;;;;;29.70;11.30;;;;;;;-2.55;92.55;100873.84;5034673;28;21220;-52
2022/02/27 00:41:49;;;;;;;34.83;7.90;;;;;;;-2.36;93.62;100873.28;5034548;28;20042;-52
2022/02/27 00:44:14;;;;;;;81.68;27.00;;;;;;;-2.52;91.60;100867.53;5029397;28;20493;-53
2022/02/27 00:46:40;;;;;;;78.05;25.10;;;;;;;-2.64;92.40;100869.34;5027906;28;20049;-54
2022/02/27 00:49:05;;;;;;;90.05;29.50;;;;;;;-2.70;93.26;100869.78;5033067;28;20029;-53
2022/02/27 00:51:32;;;;;;;70.68;25.02;;;;;;;-2.82;92.95;100867.16;5030319;28;20123;-54
2022/02/27 00:53:57;;;;;;;74.43;22.83;;;;;;;-2.68;94.33;100873.13;5037682;28;20072;-54
2022/02/27 00:56:23;;;;;;;83.22;26.35;;;;;;;-2.69;94.75;100876.72;5031568;28;20041;-52
2022/02/27 00:58:50;;;;;;;68.53;22.30;;;;;;;-2.60;96.45;100873.38;5039673;28;20430;-51
2022/02/27 01:01:19;;;;;;;85.95;27.92;;;;;;;-2.17;99.86;100872.72;5034060;28;20052;-54
2022/02/27 01:03:45;;;;;;;87.63;27.88;;;;;;;-2.13;98.13;100868.88;5033398;28;20049;-54
2022/02/27 01:06:11;;;;;;;50.38;15.48;;;;;;;-2.11;96.17;100874.00;5028306;28;20487;-53
2022/02/27 01:08:36;;;;;;;41.55;12.77;;;;;;;-2.04;95.58;100864.69;5034310;28;20211;-53
2022/02/27 01:11:01;;;;;;;42.22;12.52;;;;;;;-2.00;97.31;100855.59;5030536;28;20060;-54
2022/02/27 01:13:27;;;;;;;60.13;17.92;;;;;;;-2.14;96.56;100859.31;5035395;28;20038;-55
2022/02/27 01:15:52;;;;;;;92.80;27.35;;;;;;;-2.62;92.87;100856.94;5034096;28;20484;-54
2022/02/27 01:18:18;;;;;;;69.78;21.95;;;;;;;-2.30;98.32;100862.28;5027753;28;20492;-51
2022/02/27 01:20:43;;;;;;;101.97;28.48;;;;;;;-2.42;97.15;100858.00;5032573;28;20057;-54
2022/02/27 01:23:10;;;;;;;73.65;23.13;;;;;;;-2.33;97.67;100862.53;5035189;28;20459;-54
2022/02/27 01:25:35;;;;;;;77.43;21.73;;;;;;;-2.54;95.03;100859.78;5028418;28;20050;-54
2022/02/27 01:28:01;;;;;;;64.32;17.75;;;;;;;-2.61;95.19;100859.41;5030057;28;20531;-54
2022/02/27 01:30:26;;;;;;;46.92;14.75;;;;;;;-2.18;95.38;100852.63;5028628;28;20049;-52
2022/02/27 01:32:52;;;;;;;47.85;13.07;;;;;;;-2.20;93.44;100850.13;5027901;28;20037;-53
2022/02/27 01:35:17;;;;;;;28.65;10.68;;;;;;;-2.25;93.50;100854.06;5027802;28;20368;-53
2022/02/27 01:37:42;;;;;;;31.52;10.30;;;;;;;-2.09;93.64;100849.28;5033649;28;20344;-52
2022/02/27 01:40:08;;;;;;;30.80;11.65;;;;;;;-2.25;92.37;100848.81;5031021;28;20108;-54
2022/02/27 01:42:34;;;;;;;34.75;13.13;;;;;;;-2.54;92.13;100851.09;5033514;28;20029;-54
2022/02/27 01:45:01;;;;;;;75.30;20.85;;;;;;;-2.92;91.93;100845.19;5030124;28;20048;-51
2022/02/27 01:47:27;;;;;;;60.60;19.60;;;;;;;-2.90;95.32;100853.75;5035893;28;20083;-51
2022/02/27 01:49:52;;;;;;;49.03;16.17;;;;;;;-2.91;96.05;100851.25;5035798;28;20037;-54
2022/02/27 01:52:18;;;;;;;61.92;18.67;;;;;;;-2.78;97.23;100846.75;5036990;28;20432;-53
2022/02/27 01:54:43;;;;;;;36.25;12.73;;;;;;;-2.53;96.30;100848.31;5031738;28;20036;-51
2022/02/27 01:57:10;;;;;;;53.28;16.80;;;;;;;-2.76;95.30;100847.47;5031514;28;20427;-54
2022/02/27 01:59:36;;;;;;;50.20;17.17;;;;;;;-3.08;94.60;100849.91;5043069;28;20025;-54
2022/02/27 02:02:04;;;;;;;37.45;11.93;;;;;;;-3.14;95.61;100850.38;5029736;28;20132;-52
2022/02/27 02:04:30;;;;;;;23.73;9.75;;;;;;;-3.01;97.01;100852.91;5039085;28;20036;-52
2022/02/27 02:06:55;;;;;;;32.22;10.40;;;;;;;-3.00;96.53;100858.03;5035759;28;20041;-54
2022/02/27 02:09:20;;;;;;;25.05;9.75;;;;;;;-3.03;96.39;100856.47;5035021;28;20025;-53
2022/02/27 02:11:46;;;;;;;21.98;8.07;;;;;;;-2.88;97.13;100859.72;5036433;28;20033;-55
2022/02/27 02:14:11;;;;;;;37.10;11.30;;;;;;;-2.87;97.60;100856.16;5031704;28;20400;-53
2022/02/27 02:16:46;;;;;;;31.77;10.13;;;;;;;-2.97;97.13;100867.44;5030457;28;20045;-52
2022/02/27 02:19:16;;;;;;;32.75;11.32;;;;;;;-3.05;97.40;100844.41;5042493;28;20034;-52
2022/02/27 02:21:45;;;;;;;32.00;8.38;;;;;;;-3.09;97.33;100862.19;5032681;28;20034;-52
2022/02/27 02:24:12;;;;;;;31.10;7.75;;;;;;;-3.10;97.19;100854.41;5034846;28;20033;-52
2022/02/27 02:26:38;;;;;;;25.88;7.53;;;;;;;-3.07;97.83;100851.56;5037068;28;20566;-53
2022/02/27 02:29:07;;;;;;;24.98;7.03;;;;;;;-3.06;96.78;100853.25;5038242;28;20029;-51
2022/02/27 02:31:35;;;;;;;20.25;7.10;;;;;;;-3.03;96.51;100839.88;5035982;28;20472;-52
2022/02/27 02:34:11;;;;;;;24.20;7.53;;;;;;;-2.78;98.18;100840.66;5040181;28;20099;-53
2022/02/27 02:36:37;;;;;;;33.33;8.15;;;;;;;-2.68;98.68;100836.38;5036050;28;20061;-51
2022/02/27 02:39:04;;;;;;;26.85;8.63;;;;;;;-2.86;96.56;100838.63;5034977;28;20025;-52
2022/02/27 02:41:32;;;;;;;29.40;8.85;;;;;;;-2.65;97.57;100841.38;5041822;28;20040;-51
2022/02/27 02:43:58;;;;;;;25.17;9.15;;;;;;;-2.45;99.43;100838.06;5035615;28;20028;-53
2022/02/27 02:46:23;;;;;;;23.92;8.50;;;;;;;-2.64;97.80;100840.44;5033802;28;20388;-50
2022/02/27 02:48:50;;;;;;;30.95;8.70;;;;;;;-2.89;96.20;100834.44;5039779;28;20102;-50
2022/02/27 02:51:15;;;;;;;28.88;8.48;;;;;;;-3.27;95.03;100835.53;5042259;28;20086;-51
2022/02/27 02:53:41;;;;;;;24.48;8.68;;;;;;;-3.37;96.44;100829.31;5040958;28;20116;-51
2022/02/27 02:56:07;;;;;;;32.83;9.18;;;;;;;-3.37;97.34;100826.69;5030354;28;20045;-50
2022/02/27 02:58:36;;;;;;;25.67;9.18;;;;;;;-3.23;97.46;100827.44;5029499;28;20034;-51
2022/02/27 03:01:02;;;;;;;28.52;8.68;;;;;;;-3.31;97.23;100831.47;5033942;28;20053;-50
2022/02/27 03:03:27;;;;;;;25.35;7.65;;;;;;;-3.18;98.56;100822.69;5029296;28;20025;-50
2022/02/27 03:05:53;;;;;;;27.60;8.65;;;;;;;-3.32;98.28;100816.69;5035163;28;20069;-51
2022/02/27 03:08:18;;;;;;;20.13;7.60;;;;;;;-2.89;100.00;100823.13;5035267;28;20036;-50
2022/02/27 03:10:44;;;;;;;24.85;7.13;;;;;;;-3.03;98.93;100822.34;5035606;28;20041;-51
2022/02/27 03:13:09;;;;;;;21.45;6.38;;;;;;;-2.90;99.58;100819.63;5034429;28;20479;-53
2022/02/27 03:15:34;;;;;;;19.75;6.63;;;;;;;-3.19;97.32;100816.59;5029937;28;20392;-52
2022/02/27 03:18:00;;;;;;;21.67;8.50;;;;;;;-2.70;100.00;100812.88;5033893;28;20053;-51
2022/02/27 03:20:25;;;;;;;27.77;8.20;;;;;;;-2.50;100.00;100815.75;5036740;28;20403;-52
2022/02/27 03:22:51;;;;;;;26.88;8.63;;;;;;;-2.49;100.00;100812.19;5034647;28;20471;-51
2022/02/27 03:25:16;;;;;;;25.13;9.45;;;;;;;-2.80;98.17;100814.53;5037271;28;20037;-50
2022/02/27 03:27:42;;;;;;;22.85;8.32;;;;;;;-2.94;98.26;100812.97;5035184;28;20494;-52
2022/02/27 03:30:08;;;;;;;14.70;7.45;;;;;;;-3.26;96.89;100821.47;5032996;28;20468;-54
2022/02/27 03:32:33;;;;;;;27.45;7.85;;;;;;;-3.67;95.53;100821.06;5037471;28;20025;-53
2022/02/27 03:34:58;;;;;;;22.35;7.82;;;;;;;-3.90;95.82;100816.53;5032778;28;20456;-52
2022/02/27 03:37:24;;;;;;;30.98;8.85;;;;;;;-3.65;99.01;100813.91;5033452;28;20087;-51
2022/02/27 03:39:49;;;;;;;24.95;8.15;;;;;;;-3.70;98.85;100817.69;5036249;28;20045;-53
2022/02/27 03:42:15;;;;;;;27.80;8.27;;;;;;;-3.71;98.80;100816.03;5028465;28;20056;-51
2022/02/27 03:44:40;;;;;;;28.25;8.35;;;;;;;-3.53;100.00;100813.03;5029694;28;20419;-51
2022/02/27 03:47:06;;;;;;;35.03;8.93;;;;;;;-3.38;100.00;100805.81;5035488;28;20061;-54
2022/02/27 03:49:31;;;;;;;26.38;9.55;;;;;;;-3.13;100.00;100804.81;5030007;28;20078;-52
2022/02/27 03:51:56;;;;;;;24.08;8.90;;;;;;;-3.37;100.00;100802.22;5032825;28;20263;-51
2022/02/27 03:54:22;;;;;;;28.35;10.02;;;;;;;-3.46;100.00;100798.53;5038921;28;20097;-53
2022/02/27 03:56:47;;;;;;;26.00;9.65;;;;;;;-3.40;100.00;100807.72;5034453;28;20041;-53
2022/02/27 03:59:16;;;;;;;30.58;10.10;;;;;;;-3.21;100.00;100807.19;5037979;28;20036;-54
2022/02/27 04:01:44;;;;;;;27.35;8.15;;;;;;;-3.19;100.00;100805.28;5031688;28;20041;-52
2022/02/27 04:04:09;;;;;;;24.48;9.35;;;;;;;-3.54;100.00;100811.38;5033367;28;20033;-52
2022/02/27 04:06:35;;;;;;;26.67;8.93;;;;;;;-3.77;99.69;100815.63;5032898;28;20057;-52
2022/02/27 04:09:00;;;;;;;17.13;7.05;;;;;;;-3.97;99.06;100817.06;5037255;28;20452;-54
2022/02/27 04:11:26;;;;;;;39.45;11.10;;;;;;;-3.56;100.00;100813.25;5032489;28;20080;-53
2022/02/27 04:13:51;;;;;;;24.92;8.70;;;;;;;-3.54;99.87;100813.97;5041813;28;20106;-53
2022/02/27 04:16:17;;;;;;;27.83;8.63;;;;;;;-3.43;100.00;100813.19;5029263;28;20045;-53
2022/02/27 04:18:42;;;;;;;43.28;11.48;;;;;;;-3.43;99.84;100814.00;5028440;28;20053;-52
2022/02/27 04:21:08;;;;;;;14.43;6.07;;;;;;;-3.50;97.96;100820.66;5035455;28;20041;-54
2022/02/27 04:23:33;;;;;;;16.88;6.40;;;;;;;-3.40;98.50;100815.56;5032189;28;20028;-54
2022/02/27 04:25:59;;;;;;;31.13;8.52;;;;;;;-3.42;99.09;100809.59;5033382;28;20580;-53
2022/02/27 04:28:24;;;;;;;25.05;7.43;;;;;;;-3.51;98.56;100811.13;5028698;28;20028;-52
2022/02/27 04:30:49;;;;;;;24.98;8.18;;;;;;;-3.69;98.49;100808.06;5028379;28;20041;-53
2022/02/27 04:33:15;;;;;;;23.63;8.02;;;;;;;-3.54;99.25;100811.38;5035754;28;20029;-53
2022/02/27 04:35:40;;;;;;;32.13;8.15;;;;;;;-3.47;99.16;100809.94;5034796;28;20499;-53
2022/02/27 04:38:06;;;;;;;22.67;8.30;;;;;;;-3.50;99.52;100818.03;5032907;28;20462;-52
2022/02/27 04:40:34;;;;;;;24.42;6.88;;;;;;;-3.29;98.57;100816.47;5036243;28;20041;-52
2022/02/27 04:43:02;;;;;;;24.95;7.53;;;;;;;-3.49;98.26;100809.25;5033043;28;20034;-53
2022/02/27 04:45:28;;;;;;;25.10;6.10;;;;;;;-2.74;97.16;100810.63;5033414;28;20041;-51
2022/02/27 04:47:56;;;;;;;19.75;5.95;;;;;;;-2.92;96.52;100813.69;5028493;28;20059;-51
2022/02/27 04:50:22;;;;;;;26.50;6.47;;;;;;;-2.90;95.41;100811.75;5027059;28;20541;-52
2022/02/27 04:52:47;;;;;;;15.93;5.47;;;;;;;-3.09;95.82;100809.72;5030854;28;20025;-51
2022/02/27 04:55:12;;;;;;;21.15;6.60;;;;;;;-2.87;95.66;100815.94;5035058;28;20111;-53
2022/02/27 04:57:38;;;;;;;25.83;6.10;;;;;;;-3.13;95.41;100802.19;5031999;28;20025;-53
2022/02/27 05:00:06;;;;;;;22.48;6.07;;;;;;;-2.90;96.41;100811.75;5032383;28;20037;-52
2022/02/27 05:02:32;;;;;;;17.13;6.72;;;;;;;-2.96;96.78;100807.00;5032512;28;20546;-52
2022/02/27 05:04:58;;;;;;;18.17;6.43;;;;;;;-2.96;98.29;100804.38;5033767;28;20037;-53
2022/02/27 05:07:23;;;;;;;24.45;7.90;;;;;;;-3.11;97.76;100809.00;5031430;28;20048;-50
2022/02/27 05:09:48;;;;;;;28.58;6.47;;;;;;;-3.38;96.79;100806.63;5029822;28;20107;-51
2022/02/27 05:12:14;;;;;;;22.90;6.32;;;;;;;-3.86;95.96;100805.84;5027898;28;20042;-51
2022/02/27 05:14:39;;;;;;;19.63;6.32;;;;;;;-3.96;97.04;100805.66;5028961;28;20388;-53
2022/02/27 05:17:05;;;;;;;22.77;6.47;;;;;;;-3.82;99.63;100812.50;5027235;28;20036;-52
2022/02/27 05:19:30;;;;;;;30.88;7.15;;;;;;;-3.91;99.42;100804.38;5040808;28;20028;-51
2022/02/27 05:21:55;;;;;;;21.35;8.30;;;;;;;-4.06;98.68;100799.41;5038315;28;20045;-50
2022/02/27 05:24:21;;;;;;;17.80;6.13;;;;;;;-4.02;99.92;100795.63;5035346;28;20525;-51
2022/02/27 05:26:46;;;;;;;17.88;6.10;;;;;;;-4.00;100.00;100802.41;5033373;28;20404;-53
2022/02/27 05:29:12;;;;;;;23.02;5.68;;;;;;;-4.07;100.00;100802.97;5043728;28;20037;-52
2022/02/27 05:31:38;;;;;;;25.25;6.53;;;;;;;-3.90;99.91;100808.66;5037348;28;20498;-52
2022/02/27 05:34:05;;;;;;;17.65;5.95;;;;;;;-3.75;98.45;100809.34;5040841;28;20025;-53
2022/02/27 05:36:30;;;;;;;20.92;5.18;;;;;;;-3.87;97.71;100804.97;5034849;28;20057;-51
2022/02/27 05:38:56;;;;;;;24.13;6.38;;;;;;;-3.89;97.76;100801.66;5031484;28;20033;-54
2022/02/27 05:41:21;;;;;;;24.60;5.63;;;;;;;-3.64;99.15;100800.72;5035460;28;20489;-53
2022/02/27 05:43:46;;;;;;;16.92;6.03;;;;;;;-3.66;99.15;100809.63;5035586;28;20036;-50
2022/02/27 05:46:12;;;;;;;15.15;5.35;;;;;;;-3.70;99.62;100815.06;5038451;28;20041;-50
2022/02/27 05:48:37;;;;;;;23.15;6.80;;;;;;;-3.82;98.44;100818.63;5035267;28;20395;-51
2022/02/27 05:51:03;;;;;;;70.22;31.65;;;;;;;-3.80;98.72;100808.00;5038942;28;20494;-52
2022/02/27 05:53:28;;;;;;;26.23;11.00;;;;;;;-3.97;98.02;100814.47;5034980;28;20360;-51
2022/02/27 05:55:56;;;;;;;20.70;8.32;;;;;;;-3.81;100.00;100814.22;5038045;28;20040;-51
2022/02/27 05:58:25;;;;;;;17.55;7.60;;;;;;;-3.98;99.23;100815.41;5036104;28;20068;-50
2022/02/27 06:00:50;;;;;;;25.75;8.20;;;;;;;-4.02;98.88;100816.56;5031341;28;20050;-50
2022/02/27 06:03:16;;;;;;;17.90;7.93;;;;;;;-4.16;97.92;100818.41;5036937;28;20431;-49
2022/02/27 06:05:43;;;;;;;20.42;6.93;;;;;;;-3.79;100.00;100820.19;5037406;28;20103;-50
2022/02/27 06:08:08;;;;;;;21.20;7.03;;;;;;;-3.82;97.46;100820.38;5033126;28;20070;-50
2022/02/27 06:10:33;;;;;;;19.90;6.70;;;;;;;-3.77;97.35;100821.75;5041955;28;20049;-53
2022/02/27 06:12:59;;;;;;;20.35;6.47;;;;;;;-3.56;96.96;100823.75;5035130;28;20450;-51
2022/02/27 06:15:24;;;;;;;26.05;6.55;;;;;;;-3.40;97.63;100826.06;5035090;28;20123;-50
2022/02/27 06:17:50;;;;;;;24.63;5.65;;;;;;;-3.45;96.82;100828.19;5030734;28;20037;-51
2022/02/27 06:20:15;;;;;;;29.60;6.30;;;;;;;-3.46;97.32;100832.59;5042551;28;20099;-50
2022/02/27 06:22:45;;;;;;;30.60;6.93;;;;;;;-3.46;96.99;100837.84;5032453;28;20033;-52
2022/02/27 06:25:11;;;;;;;32.65;6.45;;;;;;;-3.10;99.12;100838.69;5037400;28;20032;-53
2022/02/27 06:27:42;;;;;;;22.90;6.07;;;;;;;-3.28;94.93;100844.34;5037070;28;20087;-53
2022/02/27 06:30:34;;;;;;;23.38;6.05;;;;;;;-3.39;94.27;100846.94;5033817;28;20439;-52
2022/02/27 06:33:00;;;;;;;26.15;6.20;;;;;;;-2.99;98.09;100849.22;5031384;28;20041;-54
2022/02/27 06:35:26;;;;;;;25.83;6.10;;;;;;;-3.09;95.52;100853.47;5029609;28;20125;-53
2022/02/27 06:37:53;;;;;;;19.30;6.55;;;;;;;-2.99;96.33;100854.47;5032621;28;20041;-54
2022/02/27 06:40:18;;;;;;;22.15;6.03;;;;;;;-3.07;94.72;100849.78;5034650;28;20029;-53
2022/02/27 06:42:43;;;;;;;18.48;6.70;;;;;;;-3.05;94.65;100854.91;5032989;28;20039;-51
2022/02/27 06:45:10;;;;;;;19.30;6.38;;;;;;;-3.06;94.44;100848.00;5026457;28;20132;-53
2022/02/27 06:47:35;;;;;;;29.90;7.05;;;;;;;-3.03;94.04;100869.56;5036792;28;20072;-50
2022/02/27 06:50:01;;;;;;;18.70;7.43;;;;;;;-2.65;95.29;100860.59;5030315;28;20025;-51
2022/02/27 06:52:26;;;;;;;19.13;6.03;;;;;;;-2.69;93.93;100866.22;5033980;28;20056;-51
2022/02/27 06:54:52;;;;;;;27.88;6.53;;;;;;;-2.65;93.17;100867.63;5035326;28;20459;-51
2022/02/27 06:57:18;;;;;;;19.50;6.43;;;;;;;-1.99;93.08;100866.00;5034781;28;20038;-53
2022/02/27 06:59:43;;;;;;;48.47;14.52;;;;;;;-0.64;85.52;100879.63;5032196;28;20167;-52
2022/02/27 07:02:09;;;;;;;47.42;18.10;;;;;;;0.49;78.26;100880.31;5034627;28;20041;-53
2022/02/27 07:04:35;;;;;;;21.08;8.60;;;;;;;0.49;79.21;100884.75;5034578;28;20404;-51
2022/02/27 07:07:00;;;;;;;21.60;8.30;;;;;;;1.58;73.07;100882.75;5031249;28;20091;-53
2022/02/27 07:09:29;;;;;;;20.23;7.60;;;;;;;2.69;69.46;100889.69;5030403;28;20013;-51
2022/02/27 07:11:57;;;;;;;21.17;7.88;;;;;;;3.06;66.77;100894.00;5033802;28;20471;-53
2022/02/27 07:14:23;;;;;;;21.13;7.38;;;;;;;2.93;65.49;100890.94;5036960;28;20041;-53
2022/02/27 07:16:48;;;;;;;21.60;7.38;;;;;;;3.68;63.04;100886.00;5031980;28;20504;-53
2022/02/27 07:19:17;;;;;;;21.42;7.50;;;;;;;4.55;60.90;100886.69;5040440;28;20096;-53
2022/02/27 07:21:43;;;;;;;16.83;7.07;;;;;;;2.65;68.50;100882.22;5031705;28;20140;-53
2022/02/27 07:24:09;;;;;;;22.70;7.50;;;;;;;3.24;66.45;100884.25;5038527;28;20463;-52
2022/02/27 07:26:34;;;;;;;20.00;7.30;;;;;;;3.06;67.03;100885.25;5037438;28;20052;-54
2022/02/27 07:29:00;;;;;;;25.35;9.80;;;;;;;3.27;65.21;100884.88;5033618;28;20428;-54
2022/02/27 07:31:25;;;;;;;16.50;8.43;;;;;;;3.13;67.03;100897.72;5031472;28;20510;-54
2022/02/27 07:33:51;;;;;;;26.52;11.60;;;;;;;3.37;65.22;100894.44;5030959;28;20484;-52
2022/02/27 07:36:17;;;;;;;20.80;9.40;;;;;;;3.14;66.90;100887.94;5029785;28;20045;-54
2022/02/27 07:38:43;;;;;;;29.30;9.63;;;;;;;3.30;64.83;100881.97;5032180;28;20037;-53
2022/02/27 07:41:08;;;;;;;31.42;12.38;;;;;;;3.97;63.23;100890.97;5035586;28;20419;-53
2022/02/27 07:43:34;;;;;;;23.38;9.10;;;;;;;3.87;64.41;100895.56;5032776;28;20032;-53
2022/02/27 07:46:00;;;;;;;25.40;12.20;;;;;;;4.01;63.12;100887.00;5033215;28;20073;-53
2022/02/27 07:48:25;;;;;;;25.60;9.80;;;;;;;3.79;64.01;100891.03;5033765;28;20057;-53
2022/02/27 07:50:51;;;;;;;23.70;9.20;;;;;;;4.38;62.45;100895.59;5029510;28;20041;-50
2022/02/27 07:53:16;;;;;;;21.92;8.73;;;;;;;4.40;60.81;100901.59;5036340;28;20031;-52
2022/02/27 07:55:42;;;;;;;19.92;7.80;;;;;;;5.35;59.29;100897.53;5034390;28;20045;-51
2022/02/27 07:58:11;;;;;;;24.52;7.28;;;;;;;5.61;58.59;100894.66;5035340;28;20018;-51
2022/02/27 08:00:36;;;;;;;20.73;7.22;;;;;;;5.12;58.66;100899.22;5034258;28;20049;-53
2022/02/27 08:03:01;;;;;;;20.02;6.90;;;;;;;4.62;60.23;100895.69;5029040;28;20060;-53
2022/02/27 08:05:27;;;;;;;20.05;6.93;;;;;;;4.92;59.99;100896.88;5038583;28;20041;-53
2022/02/27 08:07:55;;;;;;;21.65;7.20;;;;;;;4.54;61.96;100903.59;5032121;28;20499;-54
2022/02/27 08:10:20;;;;;;;19.05;7.25;;;;;;;5.34;60.63;100897.69;5033381;28;20056;-51
2022/02/27 08:12:46;;;;;;;33.20;9.68;;;;;;;5.34;59.17;100895.03;5029773;28;20523;-54
2022/02/27 08:15:14;;;;;;;22.02;8.00;;;;;;;5.55;58.20;100891.88;5038790;28;20036;-53
2022/02/27 08:17:39;;;;;;;32.60;14.10;;;;;;;6.32;55.51;100894.00;5031770;28;20120;-51
2022/02/27 08:20:05;;;;;;;27.50;12.77;;;;;;;6.09;56.94;100900.09;5040199;28;20040;-54
2022/02/27 08:22:30;;;;;;;22.55;9.30;;;;;;;6.03;56.92;100893.59;5031975;28;20506;-54
2022/02/27 08:24:56;;;;;;;23.75;8.90;;;;;;;6.08;56.81;100892.25;5032710;28;20025;-51
2022/02/27 08:27:21;;;;;;;28.30;10.88;;;;;;;6.32;55.63;100894.00;5039166;28;20040;-53
2022/02/27 08:29:49;;;;;;;39.78;15.43;;;;;;;5.92;57.30;100898.44;5034008;28;20052;-53
2022/02/27 08:32:18;;;;;;;27.25;11.57;;;;;;;6.01;55.95;100897.44;5030876;28;20041;-53
2022/02/27 08:34:43;;;;;;;29.42;12.52;;;;;;;6.61;55.58;100904.78;5034835;28;20040;-54
2022/02/27 08:37:09;;;;;;;20.80;9.65;;;;;;;6.31;57.25;100902.97;5031618;28;20037;-53
2022/02/27 08:39:34;;;;;;;26.77;10.57;;;;;;;6.83;55.37;100907.66;5028373;28;20040;-54
2022/02/27 08:42:01;;;;;;;19.33;10.30;;;;;;;5.86;58.93;100901.78;5028325;28;20036;-55
2022/02/27 08:44:28;;;;;;;29.95;10.90;;;;;;;6.69;57.48;100911.94;5034328;28;20075;-53
2022/02/27 08:46:53;;;;;;;38.25;18.27;;;;;;;6.56;57.22;100906.34;5033007;28;20049;-54
2022/02/27 08:49:19;;;;;;;24.38;11.40;;;;;;;6.39;59.15;100910.91;5033581;28;20543;-53
2022/02/27 08:51:46;;;;;;;29.77;10.23;;;;;;;7.00;56.37;100903.88;5028448;28;20563;-54
2022/02/27 08:54:12;;;;;;;24.38;8.68;;;;;;;6.34;56.58;100905.28;5028029;28;20094;-51
2022/02/27 08:56:37;;;;;;;22.35;9.10;;;;;;;6.34;57.75;100914.13;5028247;28;20055;-53
2022/02/27 08:59:03;;;;;;;27.02;11.93;;;;;;;7.10;56.00;100909.81;5026823;28;20037;-53
2022/02/27 09:01:28;;;;;;;19.17;7.70;;;;;;;7.11;56.34;100914.16;5034547;28;20492;-53
2022/02/27 09:03:54;;;;;;;22.35;8.60;;;;;;;7.34;54.92;100907.97;5037587;28;20056;-53
2022/02/27 09:06:19;;;;;;;23.17;8.82;;;;;;;6.68;58.17;100905.75;5034315;28;20045;-53
2022/02/27 09:08:45;;;;;;;25.73;8.95;;;;;;;7.26;56.04;100908.00;5032207;28;20032;-52
2022/02/27 09:11:10;;;;;;;15.50;7.93;;;;;;;7.53;53.77;100902.09;5028885;28;20041;-52
2022/02/27 09:13:36;;;;;;;27.55;8.20;;;;;;;7.45;53.41;100904.84;5031476;28;20057;-53
2022/02/27 09:16:02;;;;;;;19.35;7.53;;;;;;;5.66;57.98;100904.81;5032337;28;20152;-51
2022/02/27 09:18:27;;;;;;;23.60;7.28;;;;;;;5.13;60.60;100906.19;5027731;28;20407;-52
2022/02/27 09:20:53;;;;;;;27.75;7.55;;;;;;;5.37;60.31;100903.53;5030838;28;20471;-51
2022/02/27 09:23:19;;;;;;;19.20;9.30;;;;;;;5.32;58.51;100905.84;5033212;28;20087;-53
2022/02/27 09:25:44;;;;;;;14.80;6.68;;;;;;;5.33;58.99;100914.66;5029611;28;20084;-52
2022/02/27 09:28:09;;;;;;;15.93;6.03;;;;;;;5.21;59.86;100895.53;5031575;28;20027;-50
2022/02/27 09:30:36;;;;;;;26.98;8.80;;;;;;;5.40;61.07;100900.53;5032551;28;20087;-51
2022/02/27 09:33:01;;;;;;;26.25;10.65;;;;;;;5.93;59.87;100902.75;5032876;28;20033;-51
2022/02/27 09:35:28;;;;;;;23.73;8.38;;;;;;;7.62;55.38;100902.03;5035292;28;20055;-53
2022/02/27 09:37:57;;;;;;;22.05;7.22;;;;;;;6.51;56.24;100904.19;5028662;28;20034;-53
2022/02/27 09:40:23;;;;;;;19.13;7.53;;;;;;;6.26;56.67;100903.47;5031991;28;20045;-52
2022/02/27 09:42:48;;;;;;;18.40;8.00;;;;;;;5.90;56.93;100900.44;5028011;28;20034;-53
2022/02/27 09:45:14;;;;;;;19.38;6.60;;;;;;;5.38;58.10;100905.19;5026600;28;20049;-50
2022/02/27 09:47:39;;;;;;;17.15;6.15;;;;;;;5.27;59.91;100913.50;5027971;28;20527;-53
2022/02/27 09:50:05;;;;;;;15.80;5.88;;;;;;;4.72;60.43;100919.44;5034370;28;20044;-51
2022/02/27 09:52:30;;;;;;;18.30;6.82;;;;;;;5.78;60.05;100907.94;5038415;28;20106;-53
2022/02/27 09:54:56;;;;;;;21.10;6.45;;;;;;;5.62;58.61;100906.16;5028750;28;20080;-51
2022/02/27 09:57:21;;;;;;;17.70;7.75;;;;;;;5.60;59.91;100902.84;5034556;28;20488;-52
2022/02/27 09:59:47;;;;;;;15.55;6.88;;;;;;;6.14;58.26;100897.72;5036371;28;20079;-52
2022/02/27 10:02:13;;;;;;;15.20;6.38;;;;;;;5.60;57.93;100906.31;5028412;28;20045;-51
2022/02/27 10:04:42;;;;;;;18.00;5.68;;;;;;;5.83;58.25;100905.59;5032428;28;20040;-50
2022/02/27 10:07:12;;;;;;;15.48;5.80;;;;;;;5.85;57.30;100898.28;5028379;28;20588;-50
2022/02/27 10:09:37;;;;;;;11.85;6.05;;;;;;;5.64;57.18;100901.47;5033543;28;20052;-51
2022/02/27 10:12:20;;;;;;;10.95;6.45;;;;;;;6.19;58.34;100895.38;5036722;28;20041;-53
2022/02/27 10:15:15;;;;;;;18.63;6.95;;;;;;;6.20;55.67;100897.03;5029433;28;20025;-53
2022/02/27 10:17:41;;;;;;;14.25;5.88;;;;;;;5.83;57.05;100901.09;5029857;28;20053;-52
2022/02/27 10:20:12;;;;;;;21.27;7.38;;;;;;;6.28;55.97;100890.81;5036177;28;20037;-53
2022/02/27 10:22:44;;;;;;;15.50;8.00;;;;;;;5.68;57.96;100902.81;5034401;28;20116;-53
2022/02/27 10:25:17;;;;;;;18.25;7.25;;;;;;;5.64;57.89;100893.50;5029046;28;20041;-50
2022/02/27 10:27:51;;;;;;;17.30;6.15;;;;;;;6.09;56.74;100889.44;5038420;28;20057;-52
2022/02/27 10:30:23;;;;;;;17.42;6.50;;;;;;;5.38;57.58;100897.19;5039279;28;20367;-53
2022/02/27 10:33:02;;;;;;;15.82;7.70;;;;;;;6.18;56.82;100883.03;5034295;28;20032;-50
2022/02/27 10:35:46;;;;;;;17.58;6.63;;;;;;;7.18;55.64;100887.56;5038355;28;20061;-54
2022/02/27 10:38:15;;;;;;;17.67;6.07;;;;;;;6.58;54.57;100878.50;5030992;28;20033;-51
2022/02/27 10:40:47;;;;;;;17.23;7.63;;;;;;;6.03;56.53;100887.44;5035649;28;20045;-52
2022/02/27 10:43:15;;;;;;;15.70;6.43;;;;;;;7.09;55.67;100889.50;5037610;28;20087;-53
2022/02/27 10:45:41;;;;;;;16.02;6.18;;;;;;;7.04;52.27;100894.53;5036879;28;20053;-53
2022/02/27 10:48:13;;;;;;;20.30;6.75;;;;;;;6.32;54.38;100888.66;5033710;28;20025;-52
2022/02/27 10:50:39;;;;;;;11.70;5.47;;;;;;;6.07;54.65;100886.09;5035496;28;20099;-53
2022/02/27 10:53:05;;;;;;;12.10;6.18;;;;;;;6.16;54.63;100895.69;5037760;28;20480;-53
2022/02/27 10:55:33;;;;;;;10.25;5.05;;;;;;;6.05;55.05;100885.44;5034138;28;20052;-50
2022/02/27 10:57:59;;;;;;;12.88;5.55;;;;;;;6.13;52.85;100890.72;5031069;28;20112;-51
2022/02/27 11:00:26;;;;;;;12.05;5.63;;;;;;;6.21;54.96;100880.03;5032132;28;20120;-53
2022/02/27 11:02:55;;;;;;;9.10;5.95;;;;;;;6.16;54.03;100886.88;5030191;28;20452;-50
2022/02/27 11:05:24;;;;;;;17.52;5.90;;;;;;;6.59;52.26;100874.88;5036231;28;20479;-51
2022/02/27 11:07:55;;;;;;;10.25;4.63;;;;;;;6.44;49.09;100865.94;5030697;28;20071;-53
2022/02/27 11:10:22;;;;;;;12.63;5.38;;;;;;;6.19;49.55;100876.75;5038250;28;20131;-53
2022/02/27 11:12:47;;;;;;;15.30;5.57;;;;;;;6.31;50.42;100879.00;5033806;28;20109;-52